Bernardo de Irigoyen, Argentina
Current Conditions -  °F | °C
As of 12:00 AM on Sunday 21 Dec 2014 (Local Time) from SAAR Reporting Station
Clear Clear  
Wind Chill: 21°   Ceiling: Unl
Heat Index: 21°   Visibility: 6mi
Dew Point: 18°   Wind: 8mph
Humidity: 83%   Direction: 180°S
Pressure: 29.65"   Gusts: NA
Location:  32.21°S, 61.14°W
Report Text: SAAR 210300Z 18007KT CAVOK 21/18 Q1004
Loading
Personal Weather Stations






























Interactive Weather Map New forecast layout! Learn more

10-Day Weather Forecast

Advertisements
Track Severe Weather on mobile